sensor_id;sensor_type;location;lat;lon;timestamp;temperature;humidity
20492;DHT22;10404;51.468;6.762;2023-06-14T00:00:51;26.40;30.70
20492;DHT22;10404;51.468;6.762;2023-06-14T00:03:18;26.40;30.70
20492;DHT22;10404;51.468;6.762;2023-06-14T00:05:47;26.30;30.80
20492;DHT22;10404;51.468;6.762;2023-06-14T00:08:13;26.20;30.90
20492;DHT22;10404;51.468;6.762;2023-06-14T00:10:40;26.20;30.90
20492;DHT22;10404;51.468;6.762;2023-06-14T00:13:10;26.20;30.90
20492;DHT22;10404;51.468;6.762;2023-06-14T00:15:36;26.10;30.90
20492;DHT22;10404;51.468;6.762;2023-06-14T00:18:02;26.00;31.00
20492;DHT22;10404;51.468;6.762;2023-06-14T00:20:29;26.00;31.10
20492;DHT22;10404;51.468;6.762;2023-06-14T00:22:56;26.00;31.10
20492;DHT22;10404;51.468;6.762;2023-06-14T00:25:23;25.90;31.20
20492;DHT22;10404;51.468;6.762;2023-06-14T00:27:51;25.80;31.20
20492;DHT22;10404;51.468;6.762;2023-06-14T00:30:16;25.80;31.30
20492;DHT22;10404;51.468;6.762;2023-06-14T00:32:43;25.70;31.40
20492;DHT22;10404;51.468;6.762;2023-06-14T00:35:09;25.60;31.50
20492;DHT22;10404;51.468;6.762;2023-06-14T00:37:35;25.60;31.50
20492;DHT22;10404;51.468;6.762;2023-06-14T00:40:00;25.60;31.50
20492;DHT22;10404;51.468;6.762;2023-06-14T00:42:27;25.60;31.60
20492;DHT22;10404;51.468;6.762;2023-06-14T00:44:53;25.50;31.70
20492;DHT22;10404;51.468;6.762;2023-06-14T00:47:19;25.40;31.80
20492;DHT22;10404;51.468;6.762;2023-06-14T00:49:53;25.40;31.90
20492;DHT22;10404;51.468;6.762;2023-06-14T00:52:19;25.30;32.00
20492;DHT22;10404;51.468;6.762;2023-06-14T00:54:44;25.30;32.00
20492;DHT22;10404;51.468;6.762;2023-06-14T00:57:11;25.20;32.10
20492;DHT22;10404;51.468;6.762;2023-06-14T00:59:45;25.20;32.10
20492;DHT22;10404;51.468;6.762;2023-06-14T01:02:12;25.10;32.20
20492;DHT22;10404;51.468;6.762;2023-06-14T01:04:40;25.00;32.20
20492;DHT22;10404;51.468;6.762;2023-06-14T01:15:23;24.90;32.50
20492;DHT22;10404;51.468;6.762;2023-06-14T01:17:52;24.80;32.40
20492;DHT22;10404;51.468;6.762;2023-06-14T01:20:21;24.80;32.40
20492;DHT22;10404;51.468;6.762;2023-06-14T01:22:53;24.70;32.60
20492;DHT22;10404;51.468;6.762;2023-06-14T01:25:20;24.60;32.60
20492;DHT22;10404;51.468;6.762;2023-06-14T01:27:52;24.60;32.70
20492;DHT22;10404;51.468;6.762;2023-06-14T01:30:19;24.60;32.80
20492;DHT22;10404;51.468;6.762;2023-06-14T01:32:46;24.50;32.70
20492;DHT22;10404;51.468;6.762;2023-06-14T01:35:12;24.50;32.80
20492;DHT22;10404;51.468;6.762;2023-06-14T01:37:38;24.40;32.80
20492;DHT22;10404;51.468;6.762;2023-06-14T01:40:05;24.40;32.90
20492;DHT22;10404;51.468;6.762;2023-06-14T01:42:34;24.40;32.80
20492;DHT22;10404;51.468;6.762;2023-06-14T01:45:01;24.40;32.90
20492;DHT22;10404;51.468;6.762;2023-06-14T01:47:27;24.20;32.90
20492;DHT22;10404;51.468;6.762;2023-06-14T01:49:52;24.20;32.90
20492;DHT22;10404;51.468;6.762;2023-06-14T01:52:18;24.20;32.90
20492;DHT22;10404;51.468;6.762;2023-06-14T01:54:44;24.20;32.90
20492;DHT22;10404;51.468;6.762;2023-06-14T01:57:11;24.10;33.00
20492;DHT22;10404;51.468;6.762;2023-06-14T01:59:37;24.00;33.00
20492;DHT22;10404;51.468;6.762;2023-06-14T02:02:03;24.00;33.10
20492;DHT22;10404;51.468;6.762;2023-06-14T02:04:29;24.00;33.10
20492;DHT22;10404;51.468;6.762;2023-06-14T02:06:54;24.00;33.00
20492;DHT22;10404;51.468;6.762;2023-06-14T02:09:20;24.00;33.10
20492;DHT22;10404;51.468;6.762;2023-06-14T02:11:45;23.90;33.10
20492;DHT22;10404;51.468;6.762;2023-06-14T02:14:11;23.80;33.20
20492;DHT22;10404;51.468;6.762;2023-06-14T02:16:37;23.80;33.20
20492;DHT22;10404;51.468;6.762;2023-06-14T02:19:04;23.70;33.30
20492;DHT22;10404;51.468;6.762;2023-06-14T02:21:30;23.60;33.30
20492;DHT22;10404;51.468;6.762;2023-06-14T02:23:56;23.60;33.30
20492;DHT22;10404;51.468;6.762;2023-06-14T02:26:21;23.60;33.40
20492;DHT22;10404;51.468;6.762;2023-06-14T02:28:48;23.60;33.40
20492;DHT22;10404;51.468;6.762;2023-06-14T02:31:14;23.50;33.40
20492;DHT22;10404;51.468;6.762;2023-06-14T02:33:40;23.50;33.50
20492;DHT22;10404;51.468;6.762;2023-06-14T02:36:06;23.50;33.40
20492;DHT22;10404;51.468;6.762;2023-06-14T02:38:31;23.40;33.40
20492;DHT22;10404;51.468;6.762;2023-06-14T02:40:57;23.40;33.50
20492;DHT22;10404;51.468;6.762;2023-06-14T02:43:24;23.30;33.50
20492;DHT22;10404;51.468;6.762;2023-06-14T02:45:50;23.30;33.50
20492;DHT22;10404;51.468;6.762;2023-06-14T02:48:16;23.30;33.50
20492;DHT22;10404;51.468;6.762;2023-06-14T02:50:41;23.30;33.60
20492;DHT22;10404;51.468;6.762;2023-06-14T02:53:07;23.20;33.60
20492;DHT22;10404;51.468;6.762;2023-06-14T02:55:33;23.20;33.60
20492;DHT22;10404;51.468;6.762;2023-06-14T02:57:58;23.20;33.60
20492;DHT22;10404;51.468;6.762;2023-06-14T03:00:24;23.10;33.70
20492;DHT22;10404;51.468;6.762;2023-06-14T03:02:50;23.00;33.70
20492;DHT22;10404;51.468;6.762;2023-06-14T03:05:16;23.00;33.70
20492;DHT22;10404;51.468;6.762;2023-06-14T03:07:46;22.90;33.80
20492;DHT22;10404;51.468;6.762;2023-06-14T03:10:12;22.90;33.90
20492;DHT22;10404;51.468;6.762;2023-06-14T03:12:38;22.90;33.90
20492;DHT22;10404;51.468;6.762;2023-06-14T03:15:05;22.90;33.90
20492;DHT22;10404;51.468;6.762;2023-06-14T03:17:30;22.80;33.80
20492;DHT22;10404;51.468;6.762;2023-06-14T03:19:59;22.80;33.80
20492;DHT22;10404;51.468;6.762;2023-06-14T03:22:25;22.80;33.90
20492;DHT22;10404;51.468;6.762;2023-06-14T03:24:51;22.80;33.90
20492;DHT22;10404;51.468;6.762;2023-06-14T03:27:17;22.70;34.00
20492;DHT22;10404;51.468;6.762;2023-06-14T03:29:44;22.70;34.00
20492;DHT22;10404;51.468;6.762;2023-06-14T03:32:09;22.60;34.00
20492;DHT22;10404;51.468;6.762;2023-06-14T03:34:35;22.60;34.00
20492;DHT22;10404;51.468;6.762;2023-06-14T03:37:01;22.60;34.00
20492;DHT22;10404;51.468;6.762;2023-06-14T03:39:26;22.60;34.00
20492;DHT22;10404;51.468;6.762;2023-06-14T03:41:52;22.50;34.00
20492;DHT22;10404;51.468;6.762;2023-06-14T03:44:18;22.50;34.00
20492;DHT22;10404;51.468;6.762;2023-06-14T03:46:45;22.50;34.10
20492;DHT22;10404;51.468;6.762;2023-06-14T03:49:11;22.40;34.20
20492;DHT22;10404;51.468;6.762;2023-06-14T03:51:37;22.30;34.20
20492;DHT22;10404;51.468;6.762;2023-06-14T03:54:02;22.30;34.30
20492;DHT22;10404;51.468;6.762;2023-06-14T03:56:28;22.30;34.30
20492;DHT22;10404;51.468;6.762;2023-06-14T03:58:53;22.30;34.30
20492;DHT22;10404;51.468;6.762;2023-06-14T04:01:19;22.20;34.30
20492;DHT22;10404;51.468;6.762;2023-06-14T04:03:45;22.20;34.40
20492;DHT22;10404;51.468;6.762;2023-06-14T04:06:11;22.20;34.40
20492;DHT22;10404;51.468;6.762;2023-06-14T04:08:36;22.10;34.40
20492;DHT22;10404;51.468;6.762;2023-06-14T04:11:05;22.10;34.40
20492;DHT22;10404;51.468;6.762;2023-06-14T04:13:30;22.10;34.50
20492;DHT22;10404;51.468;6.762;2023-06-14T04:15:56;22.10;34.60
20492;DHT22;10404;51.468;6.762;2023-06-14T04:18:22;22.10;34.60
20492;DHT22;10404;51.468;6.762;2023-06-14T04:20:49;22.00;34.60
20492;DHT22;10404;51.468;6.762;2023-06-14T04:23:16;22.00;34.70
20492;DHT22;10404;51.468;6.762;2023-06-14T04:25:43;21.90;34.70
20492;DHT22;10404;51.468;6.762;2023-06-14T04:28:11;21.90;34.80
20492;DHT22;10404;51.468;6.762;2023-06-14T04:30:37;21.90;34.80
20492;DHT22;10404;51.468;6.762;2023-06-14T04:33:04;21.90;34.90
20492;DHT22;10404;51.468;6.762;2023-06-14T04:35:31;21.90;35.00
20492;DHT22;10404;51.468;6.762;2023-06-14T04:37:58;21.90;34.90
20492;DHT22;10404;51.468;6.762;2023-06-14T04:40:24;21.80;35.00
20492;DHT22;10404;51.468;6.762;2023-06-14T04:42:50;21.80;35.00
20492;DHT22;10404;51.468;6.762;2023-06-14T04:45:16;21.70;35.10
20492;DHT22;10404;51.468;6.762;2023-06-14T04:47:42;21.70;35.10
20492;DHT22;10404;51.468;6.762;2023-06-14T04:50:09;21.70;35.10
20492;DHT22;10404;51.468;6.762;2023-06-14T04:52:36;21.70;35.30
20492;DHT22;10404;51.468;6.762;2023-06-14T04:55:03;21.70;35.30
20492;DHT22;10404;51.468;6.762;2023-06-14T04:57:28;21.70;35.30
20492;DHT22;10404;51.468;6.762;2023-06-14T04:59:54;21.70;35.30
20492;DHT22;10404;51.468;6.762;2023-06-14T05:02:24;21.70;35.30
20492;DHT22;10404;51.468;6.762;2023-06-14T05:04:50;21.70;35.40
20492;DHT22;10404;51.468;6.762;2023-06-14T05:07:16;21.60;35.50
20492;DHT22;10404;51.468;6.762;2023-06-14T05:09:41;21.50;35.70
20492;DHT22;10404;51.468;6.762;2023-06-14T05:12:07;21.70;35.70
20492;DHT22;10404;51.468;6.762;2023-06-14T05:14:34;21.50;35.80
20492;DHT22;10404;51.468;6.762;2023-06-14T05:17:00;21.50;35.80
20492;DHT22;10404;51.468;6.762;2023-06-14T05:19:25;21.50;35.80
20492;DHT22;10404;51.468;6.762;2023-06-14T05:21:51;21.60;35.90
20492;DHT22;10404;51.468;6.762;2023-06-14T05:24:18;21.50;35.90
20492;DHT22;10404;51.468;6.762;2023-06-14T05:26:43;21.60;35.90
20492;DHT22;10404;51.468;6.762;2023-06-14T05:29:09;21.50;36.00
20492;DHT22;10404;51.468;6.762;2023-06-14T05:31:35;21.50;36.00
20492;DHT22;10404;51.468;6.762;2023-06-14T05:34:00;21.60;36.10
20492;DHT22;10404;51.468;6.762;2023-06-14T05:36:26;21.70;36.10
20492;DHT22;10404;51.468;6.762;2023-06-14T05:38:53;21.70;36.00
20492;DHT22;10404;51.468;6.762;2023-06-14T05:41:28;21.80;36.10
20492;DHT22;10404;51.468;6.762;2023-06-14T05:43:57;21.90;36.00
20492;DHT22;10404;51.468;6.762;2023-06-14T05:46:24;22.00;35.90
20492;DHT22;10404;51.468;6.762;2023-06-14T05:48:54;22.00;35.80
20492;DHT22;10404;51.468;6.762;2023-06-14T05:51:20;22.10;35.80
20492;DHT22;10404;51.468;6.762;2023-06-14T05:53:47;22.20;35.80
20492;DHT22;10404;51.468;6.762;2023-06-14T05:56:13;22.30;35.70
20492;DHT22;10404;51.468;6.762;2023-06-14T05:58:39;22.30;35.70
20492;DHT22;10404;51.468;6.762;2023-06-14T06:01:04;22.50;35.70
20492;DHT22;10404;51.468;6.762;2023-06-14T06:03:30;22.50;35.50
20492;DHT22;10404;51.468;6.762;2023-06-14T06:05:56;22.60;35.50
20492;DHT22;10404;51.468;6.762;2023-06-14T06:08:21;22.60;35.50
20492;DHT22;10404;51.468;6.762;2023-06-14T06:10:47;22.70;35.50
20492;DHT22;10404;51.468;6.762;2023-06-14T06:13:12;22.70;35.40
20492;DHT22;10404;51.468;6.762;2023-06-14T06:15:38;22.80;35.40
20492;DHT22;10404;51.468;6.762;2023-06-14T06:18:04;22.90;35.40
20492;DHT22;10404;51.468;6.762;2023-06-14T06:20:29;23.00;35.30
20492;DHT22;10404;51.468;6.762;2023-06-14T06:23:00;23.00;35.40
20492;DHT22;10404;51.468;6.762;2023-06-14T06:25:26;23.10;35.30
20492;DHT22;10404;51.468;6.762;2023-06-14T06:27:57;23.20;35.30
20492;DHT22;10404;51.468;6.762;2023-06-14T06:30:23;23.30;35.30
20492;DHT22;10404;51.468;6.762;2023-06-14T06:32:50;23.40;35.30
20492;DHT22;10404;51.468;6.762;2023-06-14T06:35:16;23.50;35.20
20492;DHT22;10404;51.468;6.762;2023-06-14T06:37:42;23.60;35.10
20492;DHT22;10404;51.468;6.762;2023-06-14T06:40:08;23.60;35.00
20492;DHT22;10404;51.468;6.762;2023-06-14T06:42:34;23.80;34.90
20492;DHT22;10404;51.468;6.762;2023-06-14T06:45:00;23.90;34.70
20492;DHT22;10404;51.468;6.762;2023-06-14T06:47:26;23.90;34.60
20492;DHT22;10404;51.468;6.762;2023-06-14T06:49:51;24.00;34.50
20492;DHT22;10404;51.468;6.762;2023-06-14T06:52:17;24.00;34.40
20492;DHT22;10404;51.468;6.762;2023-06-14T06:54:43;24.20;34.20
20492;DHT22;10404;51.468;6.762;2023-06-14T06:57:08;24.20;34.10
20492;DHT22;10404;51.468;6.762;2023-06-14T06:59:34;24.30;34.00
20492;DHT22;10404;51.468;6.762;2023-06-14T07:02:00;24.40;34.00
20492;DHT22;10404;51.468;6.762;2023-06-14T07:04:26;24.50;34.00
20492;DHT22;10404;51.468;6.762;2023-06-14T07:06:51;24.50;34.00
20492;DHT22;10404;51.468;6.762;2023-06-14T07:09:17;24.70;33.80
20492;DHT22;10404;51.468;6.762;2023-06-14T07:11:44;24.80;33.70
20492;DHT22;10404;51.468;6.762;2023-06-14T07:14:09;24.90;33.60
20492;DHT22;10404;51.468;6.762;2023-06-14T07:16:35;25.00;33.60
20492;DHT22;10404;51.468;6.762;2023-06-14T07:19:04;25.00;33.50
20492;DHT22;10404;51.468;6.762;2023-06-14T07:21:30;25.20;33.30
20492;DHT22;10404;51.468;6.762;2023-06-14T07:23:56;25.30;33.30
20492;DHT22;10404;51.468;6.762;2023-06-14T07:26:22;25.40;33.40
20492;DHT22;10404;51.468;6.762;2023-06-14T07:28:48;25.50;33.10
20492;DHT22;10404;51.468;6.762;2023-06-14T07:31:15;25.60;32.80
20492;DHT22;10404;51.468;6.762;2023-06-14T07:33:42;25.70;32.80
20492;DHT22;10404;51.468;6.762;2023-06-14T07:36:07;25.80;32.60
20492;DHT22;10404;51.468;6.762;2023-06-14T07:38:33;25.80;32.50
20492;DHT22;10404;51.468;6.762;2023-06-14T07:41:00;26.00;32.40
20492;DHT22;10404;51.468;6.762;2023-06-14T07:43:25;26.00;32.40
20492;DHT22;10404;51.468;6.762;2023-06-14T07:45:51;26.10;32.40
20492;DHT22;10404;51.468;6.762;2023-06-14T07:48:16;26.20;32.10
20492;DHT22;10404;51.468;6.762;2023-06-14T07:50:42;26.40;32.00
20492;DHT22;10404;51.468;6.762;2023-06-14T07:53:08;26.40;32.00
20492;DHT22;10404;51.468;6.762;2023-06-14T07:55:33;26.50;32.10
20492;DHT22;10404;51.468;6.762;2023-06-14T07:58:08;26.60;31.90
20492;DHT22;10404;51.468;6.762;2023-06-14T08:00:34;26.80;31.70
20492;DHT22;10404;51.468;6.762;2023-06-14T08:03:00;26.90;31.40
20492;DHT22;10404;51.468;6.762;2023-06-14T08:05:26;26.90;31.40
20492;DHT22;10404;51.468;6.762;2023-06-14T08:07:52;27.00;31.30
20492;DHT22;10404;51.468;6.762;2023-06-14T08:10:18;27.10;31.40
20492;DHT22;10404;51.468;6.762;2023-06-14T08:12:43;27.10;31.30
20492;DHT22;10404;51.468;6.762;2023-06-14T08:15:10;27.30;31.30
20492;DHT22;10404;51.468;6.762;2023-06-14T08:17:35;27.30;31.20
20492;DHT22;10404;51.468;6.762;2023-06-14T08:20:02;27.40;31.10
20492;DHT22;10404;51.468;6.762;2023-06-14T08:22:29;27.50;31.10
20492;DHT22;10404;51.468;6.762;2023-06-14T08:24:58;27.50;31.00
20492;DHT22;10404;51.468;6.762;2023-06-14T08:27:23;27.60;31.00
20492;DHT22;10404;51.468;6.762;2023-06-14T08:29:49;27.70;31.10
20492;DHT22;10404;51.468;6.762;2023-06-14T08:32:15;27.70;31.00
20492;DHT22;10404;51.468;6.762;2023-06-14T08:34:40;27.80;31.00
20492;DHT22;10404;51.468;6.762;2023-06-14T08:37:06;27.80;31.00
20492;DHT22;10404;51.468;6.762;2023-06-14T08:39:32;27.90;30.80
20492;DHT22;10404;51.468;6.762;2023-06-14T08:41:58;28.00;30.90
20492;DHT22;10404;51.468;6.762;2023-06-14T08:44:26;28.00;30.90
20492;DHT22;10404;51.468;6.762;2023-06-14T08:46:53;28.10;31.00
20492;DHT22;10404;51.468;6.762;2023-06-14T08:49:21;28.20;30.80
20492;DHT22;10404;51.468;6.762;2023-06-14T08:51:46;28.30;30.70
20492;DHT22;10404;51.468;6.762;2023-06-14T08:54:17;28.40;30.50
20492;DHT22;10404;51.468;6.762;2023-06-14T08:56:46;28.50;30.40
20492;DHT22;10404;51.468;6.762;2023-06-14T08:59:13;28.50;30.30
20492;DHT22;10404;51.468;6.762;2023-06-14T09:01:40;28.60;30.40
20492;DHT22;10404;51.468;6.762;2023-06-14T09:04:06;28.60;30.40
20492;DHT22;10404;51.468;6.762;2023-06-14T09:06:32;28.70;30.50
20492;DHT22;10404;51.468;6.762;2023-06-14T09:08:58;28.70;30.30
20492;DHT22;10404;51.468;6.762;2023-06-14T09:11:23;28.80;30.30
20492;DHT22;10404;51.468;6.762;2023-06-14T09:13:51;28.80;30.20
20492;DHT22;10404;51.468;6.762;2023-06-14T09:16:16;28.80;29.90
20492;DHT22;10404;51.468;6.762;2023-06-14T09:18:46;28.80;29.90
20492;DHT22;10404;51.468;6.762;2023-06-14T09:21:16;28.80;29.80
20492;DHT22;10404;51.468;6.762;2023-06-14T09:23:46;28.90;30.00
20492;DHT22;10404;51.468;6.762;2023-06-14T09:26:17;28.90;29.90
20492;DHT22;10404;51.468;6.762;2023-06-14T09:28:49;29.00;29.90
20492;DHT22;10404;51.468;6.762;2023-06-14T09:31:17;29.00;29.70
20492;DHT22;10404;51.468;6.762;2023-06-14T09:33:44;29.10;29.50
20492;DHT22;10404;51.468;6.762;2023-06-14T09:36:21;29.10;29.20
20492;DHT22;10404;51.468;6.762;2023-06-14T09:39:03;29.10;29.40
20492;DHT22;10404;51.468;6.762;2023-06-14T09:41:37;29.20;29.40
20492;DHT22;10404;51.468;6.762;2023-06-14T09:44:06;29.20;29.30
20492;DHT22;10404;51.468;6.762;2023-06-14T09:46:33;29.30;29.20
20492;DHT22;10404;51.468;6.762;2023-06-14T09:48:59;29.30;28.70
20492;DHT22;10404;51.468;6.762;2023-06-14T09:51:26;29.30;28.90
20492;DHT22;10404;51.468;6.762;2023-06-14T09:53:53;29.40;29.00
20492;DHT22;10404;51.468;6.762;2023-06-14T09:56:27;29.50;28.70
20492;DHT22;10404;51.468;6.762;2023-06-14T09:58:56;29.50;28.90
20492;DHT22;10404;51.468;6.762;2023-06-14T10:01:23;29.50;28.80
20492;DHT22;10404;51.468;6.762;2023-06-14T10:03:50;29.50;28.70
20492;DHT22;10404;51.468;6.762;2023-06-14T10:06:17;29.70;28.60
20492;DHT22;10404;51.468;6.762;2023-06-14T10:08:43;29.70;28.70
20492;DHT22;10404;51.468;6.762;2023-06-14T10:11:12;29.70;28.40
20492;DHT22;10404;51.468;6.762;2023-06-14T10:13:38;29.70;28.40
20492;DHT22;10404;51.468;6.762;2023-06-14T10:16:17;29.70;28.30
20492;DHT22;10404;51.468;6.762;2023-06-14T10:18:51;29.70;27.70
20492;DHT22;10404;51.468;6.762;2023-06-14T10:24:12;29.70;28.20
20492;DHT22;10404;51.468;6.762;2023-06-14T10:26:54;29.70;28.10
20492;DHT22;10404;51.468;6.762;2023-06-14T10:29:20;29.70;28.30
20492;DHT22;10404;51.468;6.762;2023-06-14T10:31:47;29.70;28.30
20492;DHT22;10404;51.468;6.762;2023-06-14T10:34:27;29.70;28.30
20492;DHT22;10404;51.468;6.762;2023-06-14T10:37:10;29.70;27.60
20492;DHT22;10404;51.468;6.762;2023-06-14T10:39:40;29.70;27.70
20492;DHT22;10404;51.468;6.762;2023-06-14T10:42:11;29.70;27.90
20492;DHT22;10404;51.468;6.762;2023-06-14T10:44:50;29.70;28.10
20492;DHT22;10404;51.468;6.762;2023-06-14T10:47:34;29.90;27.70
20492;DHT22;10404;51.468;6.762;2023-06-14T10:50:11;29.90;27.70
20492;DHT22;10404;51.468;6.762;2023-06-14T10:52:42;30.00;27.80
20492;DHT22;10404;51.468;6.762;2023-06-14T10:55:14;30.00;27.40
20492;DHT22;10404;51.468;6.762;2023-06-14T11:00:08;30.00;27.30
20492;DHT22;10404;51.468;6.762;2023-06-14T11:05:14;30.10;27.20
20492;DHT22;10404;51.468;6.762;2023-06-14T11:07:55;30.10;27.20
20492;DHT22;10404;51.468;6.762;2023-06-14T11:10:40;30.10;26.80
20492;DHT22;10404;51.468;6.762;2023-06-14T11:13:07;30.20;27.00
20492;DHT22;10404;51.468;6.762;2023-06-14T11:15:34;30.30;26.70
20492;DHT22;10404;51.468;6.762;2023-06-14T11:18:05;30.30;26.70
20492;DHT22;10404;51.468;6.762;2023-06-14T11:20:32;30.30;26.90
20492;DHT22;10404;51.468;6.762;2023-06-14T11:22:58;30.30;26.50
20492;DHT22;10404;51.468;6.762;2023-06-14T11:25:24;30.30;26.80
20492;DHT22;10404;51.468;6.762;2023-06-14T11:27:50;30.40;26.90
20492;DHT22;10404;51.468;6.762;2023-06-14T11:30:16;30.40;26.90
20492;DHT22;10404;51.468;6.762;2023-06-14T11:32:45;30.50;27.00
20492;DHT22;10404;51.468;6.762;2023-06-14T11:35:11;30.50;27.00
20492;DHT22;10404;51.468;6.762;2023-06-14T11:37:37;30.50;26.90
20492;DHT22;10404;51.468;6.762;2023-06-14T11:40:04;30.50;26.90
20492;DHT22;10404;51.468;6.762;2023-06-14T11:42:35;30.50;26.80
20492;DHT22;10404;51.468;6.762;2023-06-14T11:45:01;30.50;27.00
20492;DHT22;10404;51.468;6.762;2023-06-14T11:47:35;30.60;27.00
20492;DHT22;10404;51.468;6.762;2023-06-14T11:50:08;30.60;26.90
20492;DHT22;10404;51.468;6.762;2023-06-14T11:52:35;30.60;26.70
20492;DHT22;10404;51.468;6.762;2023-06-14T11:55:02;30.60;26.50
20492;DHT22;10404;51.468;6.762;2023-06-14T11:57:33;30.60;26.70
20492;DHT22;10404;51.468;6.762;2023-06-14T11:59:59;30.70;26.90
20492;DHT22;10404;51.468;6.762;2023-06-14T12:02:24;30.70;26.80
20492;DHT22;10404;51.468;6.762;2023-06-14T12:04:53;30.70;26.70
20492;DHT22;10404;51.468;6.762;2023-06-14T12:07:18;30.70;26.80
20492;DHT22;10404;51.468;6.762;2023-06-14T12:12:26;30.70;26.90
20492;DHT22;10404;51.468;6.762;2023-06-14T12:14:53;30.80;26.90
20492;DHT22;10404;51.468;6.762;2023-06-14T12:17:19;30.80;27.00
20492;DHT22;10404;51.468;6.762;2023-06-14T12:19:45;30.90;27.00
20492;DHT22;10404;51.468;6.762;2023-06-14T12:22:12;30.90;27.00
20492;DHT22;10404;51.468;6.762;2023-06-14T12:24:39;30.90;26.70
20492;DHT22;10404;51.468;6.762;2023-06-14T12:27:05;30.90;26.90
20492;DHT22;10404;51.468;6.762;2023-06-14T12:29:31;31.00;26.90
20492;DHT22;10404;51.468;6.762;2023-06-14T12:31:57;31.00;27.20
20492;DHT22;10404;51.468;6.762;2023-06-14T12:34:26;31.10;27.00
20492;DHT22;10404;51.468;6.762;2023-06-14T12:36:55;31.10;27.10
20492;DHT22;10404;51.468;6.762;2023-06-14T12:39:21;31.10;27.20
20492;DHT22;10404;51.468;6.762;2023-06-14T12:41:47;31.20;27.30
20492;DHT22;10404;51.468;6.762;2023-06-14T12:44:14;31.20;27.30
20492;DHT22;10404;51.468;6.762;2023-06-14T12:46:40;31.20;27.10
20492;DHT22;10404;51.468;6.762;2023-06-14T12:49:08;31.20;27.20
20492;DHT22;10404;51.468;6.762;2023-06-14T12:51:34;31.20;27.20
20492;DHT22;10404;51.468;6.762;2023-06-14T12:54:00;31.20;27.20
20492;DHT22;10404;51.468;6.762;2023-06-14T12:56:25;31.30;27.20
20492;DHT22;10404;51.468;6.762;2023-06-14T12:58:51;31.40;27.30
20492;DHT22;10404;51.468;6.762;2023-06-14T13:01:17;31.50;27.20
20492;DHT22;10404;51.468;6.762;2023-06-14T13:03:43;31.50;27.40
20492;DHT22;10404;51.468;6.762;2023-06-14T13:06:08;31.50;27.10
20492;DHT22;10404;51.468;6.762;2023-06-14T13:08:34;31.60;27.20
20492;DHT22;10404;51.468;6.762;2023-06-14T13:10:59;31.60;27.10
20492;DHT22;10404;51.468;6.762;2023-06-14T13:13:25;31.60;27.30
20492;DHT22;10404;51.468;6.762;2023-06-14T13:15:51;31.70;27.20
20492;DHT22;10404;51.468;6.762;2023-06-14T13:18:17;31.70;27.30
20492;DHT22;10404;51.468;6.762;2023-06-14T13:20:43;31.70;27.10
20492;DHT22;10404;51.468;6.762;2023-06-14T13:23:09;31.80;27.20
20492;DHT22;10404;51.468;6.762;2023-06-14T13:25:38;31.80;27.10
20492;DHT22;10404;51.468;6.762;2023-06-14T13:28:05;31.90;27.20
20492;DHT22;10404;51.468;6.762;2023-06-14T13:30:31;32.00;27.20
20492;DHT22;10404;51.468;6.762;2023-06-14T13:32:57;32.00;27.30
20492;DHT22;10404;51.468;6.762;2023-06-14T13:35:23;32.10;27.10
20492;DHT22;10404;51.468;6.762;2023-06-14T13:37:49;32.20;27.20
20492;DHT22;10404;51.468;6.762;2023-06-14T13:40:15;32.20;27.20
20492;DHT22;10404;51.468;6.762;2023-06-14T13:42:41;32.20;27.30
20492;DHT22;10404;51.468;6.762;2023-06-14T13:45:07;32.20;26.90
20492;DHT22;10404;51.468;6.762;2023-06-14T13:47:33;32.20;26.90
20492;DHT22;10404;51.468;6.762;2023-06-14T13:49:59;32.20;26.80
20492;DHT22;10404;51.468;6.762;2023-06-14T13:52:25;32.40;26.80
20492;DHT22;10404;51.468;6.762;2023-06-14T13:54:51;32.40;26.80
20492;DHT22;10404;51.468;6.762;2023-06-14T13:57:17;32.50;27.00
20492;DHT22;10404;51.468;6.762;2023-06-14T13:59:43;32.50;26.90
20492;DHT22;10404;51.468;6.762;2023-06-14T14:02:12;32.50;26.60
20492;DHT22;10404;51.468;6.762;2023-06-14T14:04:39;32.50;26.60
20492;DHT22;10404;51.468;6.762;2023-06-14T14:07:06;32.50;26.40
20492;DHT22;10404;51.468;6.762;2023-06-14T14:09:32;32.50;26.60
20492;DHT22;10404;51.468;6.762;2023-06-14T14:11:59;32.60;26.50
20492;DHT22;10404;51.468;6.762;2023-06-14T14:14:24;32.70;26.50
20492;DHT22;10404;51.468;6.762;2023-06-14T14:16:50;32.80;26.40
20492;DHT22;10404;51.468;6.762;2023-06-14T14:19:20;32.80;26.50
20492;DHT22;10404;51.468;6.762;2023-06-14T14:21:46;32.90;26.40
20492;DHT22;10404;51.468;6.762;2023-06-14T14:24:12;32.90;26.50
20492;DHT22;10404;51.468;6.762;2023-06-14T14:26:38;32.90;26.00
20492;DHT22;10404;51.468;6.762;2023-06-14T14:29:04;33.00;26.00
20492;DHT22;10404;51.468;6.762;2023-06-14T14:31:30;33.00;26.10
20492;DHT22;10404;51.468;6.762;2023-06-14T14:33:56;33.00;26.20
20492;DHT22;10404;51.468;6.762;2023-06-14T14:36:21;33.00;26.10
20492;DHT22;10404;51.468;6.762;2023-06-14T14:38:47;33.10;26.20
20492;DHT22;10404;51.468;6.762;2023-06-14T14:41:13;33.10;26.20
20492;DHT22;10404;51.468;6.762;2023-06-14T14:43:39;33.20;26.20
20492;DHT22;10404;51.468;6.762;2023-06-14T14:46:05;33.20;26.10
20492;DHT22;10404;51.468;6.762;2023-06-14T14:48:31;33.30;26.10
20492;DHT22;10404;51.468;6.762;2023-06-14T14:50:56;33.40;26.20
20492;DHT22;10404;51.468;6.762;2023-06-14T14:53:22;33.40;26.20
20492;DHT22;10404;51.468;6.762;2023-06-14T14:55:48;33.40;26.10
20492;DHT22;10404;51.468;6.762;2023-06-14T14:58:13;33.40;26.10
20492;DHT22;10404;51.468;6.762;2023-06-14T15:00:46;33.40;26.00
20492;DHT22;10404;51.468;6.762;2023-06-14T15:03:12;33.40;26.00
20492;DHT22;10404;51.468;6.762;2023-06-14T15:05:38;33.50;26.10
20492;DHT22;10404;51.468;6.762;2023-06-14T15:08:04;33.50;26.00
20492;DHT22;10404;51.468;6.762;2023-06-14T15:10:35;33.50;26.00
20492;DHT22;10404;51.468;6.762;2023-06-14T15:13:01;33.50;25.90
20492;DHT22;10404;51.468;6.762;2023-06-14T15:15:26;33.60;25.70
20492;DHT22;10404;51.468;6.762;2023-06-14T15:17:52;33.60;25.80
20492;DHT22;10404;51.468;6.762;2023-06-14T15:20:18;33.60;25.90
20492;DHT22;10404;51.468;6.762;2023-06-14T15:22:43;33.70;25.90
20492;DHT22;10404;51.468;6.762;2023-06-14T15:25:09;33.60;25.00
20492;DHT22;10404;51.468;6.762;2023-06-14T15:27:34;33.20;24.70
20492;DHT22;10404;51.468;6.762;2023-06-14T15:30:01;32.60;25.10
20492;DHT22;10404;51.468;6.762;2023-06-14T15:32:26;32.20;25.40
20492;DHT22;10404;51.468;6.762;2023-06-14T15:34:52;31.80;25.80
20492;DHT22;10404;51.468;6.762;2023-06-14T15:37:17;31.70;25.80
20492;DHT22;10404;51.468;6.762;2023-06-14T15:39:43;31.70;26.00
20492;DHT22;10404;51.468;6.762;2023-06-14T15:42:08;31.90;25.90
20492;DHT22;10404;51.468;6.762;2023-06-14T15:44:50;32.20;25.70
20492;DHT22;10404;51.468;6.762;2023-06-14T15:47:16;32.50;25.60